Time;durP1;ratioP1;P1;durP2;ratioP2;P2;SDS_P1;SDS_P2;PMS_P1;PMS_P2;Temp;Humidity;BMP_temperature;BMP_pressure;BME280_temperature;BME280_humidity;BME280_pressure;Samples;Min_cycle;Max_cycle;Signal;HPM_P1;HPM_P2
2022/02/07 09:18:14;;;;;;;1.40;0.93;;;;;;;4.54;88.40;99132.63;5170934;27;20921;-86
2022/02/07 09:20:42;;;;;;;5.97;1.00;;;;;;;5.16;84.94;99148.78;5136453;27;38711;-86
2022/02/07 09:23:10;;;;;;;0.67;0.63;;;;;;;5.75;80.47;99179.88;5135871;27;42834;-84
2022/02/07 09:25:38;;;;;;;3.20;1.37;;;;;;;6.18;77.61;99186.16;5136147;27;44019;-85
2022/02/07 09:28:06;;;;;;;2.40;0.70;;;;;;;6.55;76.58;99191.66;5135176;27;43293;-85
2022/02/07 09:30:33;;;;;;;1.70;0.77;;;;;;;6.81;74.57;99201.06;5136393;27;40070;-84
2022/02/07 09:33:01;;;;;;;3.57;0.97;;;;;;;6.98;73.76;99201.22;5135516;27;42329;-85
2022/02/07 09:35:31;;;;;;;1.17;0.60;;;;;;;7.16;72.27;99220.66;5136158;27;43171;-86
2022/02/07 09:37:58;;;;;;;1.90;0.80;;;;;;;7.06;71.87;99216.69;5152118;27;41135;-85
2022/02/07 09:40:26;;;;;;;1.20;1.00;;;;;;;7.04;70.63;99244.91;5136197;27;38846;-84
2022/02/07 09:42:58;;;;;;;1.57;1.10;;;;;;;6.99;71.06;99215.25;5135462;27;40926;-86
2022/02/07 09:45:32;;;;;;;1.57;0.63;;;;;;;7.20;70.58;99240.66;5135677;27;42855;-88
2022/02/07 09:48:02;;;;;;;2.50;0.83;;;;;;;7.25;70.68;99243.97;5135557;27;40784;-83
2022/02/07 09:50:32;;;;;;;1.53;1.00;;;;;;;7.34;70.24;99253.25;5135847;27;40828;-87
2022/02/07 09:53:00;;;;;;;2.00;1.00;;;;;;;7.38;69.46;99253.06;5135372;27;40931;-87
2022/02/07 09:55:29;;;;;;;2.37;1.00;;;;;;;7.36;68.59;99260.19;5136210;27;41770;-86
2022/02/07 09:57:56;;;;;;;4.30;1.13;;;;;;;7.28;69.11;99243.84;5134972;27;41184;-86
2022/02/07 10:00:30;;;;;;;2.63;1.00;;;;;;;7.53;69.17;99260.31;5135532;27;40785;-82
2022/02/07 10:03:07;;;;;;;1.83;0.77;;;;;;;7.59;68.00;99274.97;5134814;27;43008;-84
2022/02/07 10:05:47;;;;;;;0.93;0.90;;;;;;;7.74;68.81;99271.69;5135645;27;42280;-83
2022/02/07 10:08:33;;;;;;;2.93;0.87;;;;;;;7.67;66.95;99278.13;5134994;27;42463;-88
2022/02/07 10:11:20;;;;;;;2.17;0.80;;;;;;;7.62;66.72;99295.94;5135476;27;40777;-87
2022/02/07 10:13:55;;;;;;;1.93;0.60;;;;;;;7.54;67.28;99304.16;5152972;27;41703;-86
2022/02/07 10:16:36;;;;;;;5.17;1.07;;;;;;;7.53;67.78;99313.03;5133827;27;41560;-87
2022/02/07 10:19:23;;;;;;;1.13;0.90;;;;;;;7.47;66.62;99321.19;5135651;27;42215;-86
2022/02/07 10:39:14;;;;;;;1.93;0.83;;;;;;;8.34;66.91;99334.97;5119883;27;41792;-85
2022/02/07 10:41:59;;;;;;;2.63;1.00;;;;;;;8.55;63.73;99355.06;5120621;27;41805;-83
2022/02/07 10:44:35;;;;;;;4.63;1.03;;;;;;;9.03;63.68;99349.25;5121139;27;39052;-86
2022/02/07 10:47:09;;;;;;;0.90;0.70;;;;;;;9.67;60.97;99393.66;5120913;27;40641;-87
2022/02/07 10:49:59;;;;;;;4.03;1.30;;;;;;;10.31;61.70;99385.94;5121209;27;44373;-88
2022/02/07 10:52:27;;;;;;;4.63;0.90;;;;;;;11.73;57.67;99412.50;5120454;27;42055;-88
2022/02/07 10:54:56;;;;;;;2.13;0.87;;;;;;;12.64;54.12;99430.88;5121189;27;41119;-85
2022/02/07 10:57:24;;;;;;;1.67;0.80;;;;;;;12.76;51.98;99466.47;5120055;27;42898;-88
2022/02/07 10:59:51;;;;;;;1.80;0.83;;;;;;;11.97;52.61;99442.94;5120893;27;42539;-88
2022/02/07 11:05:07;;;;;;;1.50;0.77;;;;;;;12.31;52.64;99457.72;5118337;27;39921;-83
2022/02/07 11:07:35;;;;;;;0.70;0.70;;;;;;;12.04;52.64;99475.28;5120489;27;42011;-85
2022/02/07 11:10:27;;;;;;;2.63;0.83;;;;;;;11.54;53.38;99476.34;5138040;27;42651;-83
2022/02/07 11:15:43;;;;;;;1.30;0.80;;;;;;;10.49;56.79;99468.88;5120349;27;38833;-85
2022/02/07 11:21:13;;;;;;;1.77;1.00;;;;;;;9.67;58.97;99452.72;5119237;27;44005;-85
2022/02/07 11:23:51;;;;;;;0.93;0.77;;;;;;;9.25;60.59;99439.81;5120111;27;41288;-89
2022/02/07 11:26:36;;;;;;;1.53;1.13;;;;;;;9.04;62.67;99450.50;5120278;27;38799;-87
2022/02/07 11:29:03;;;;;;;1.80;0.93;;;;;;;8.74;64.16;99435.16;5121540;27;42106;-86
2022/02/07 11:31:40;;;;;;;0.97;0.93;;;;;;;8.83;65.75;99452.38;5120475;27;43043;-86
2022/02/07 11:34:11;;;;;;;1.70;1.00;;;;;;;9.70;65.20;99457.84;5121138;27;42303;-85
2022/02/07 11:36:40;;;;;;;4.80;0.90;;;;;;;10.20;64.40;99478.31;5120103;27;38833;-87
2022/02/07 11:39:12;;;;;;;0.93;0.70;;;;;;;10.83;60.91;99493.56;5137535;27;41741;-87
2022/02/07 11:42:12;;;;;;;2.53;1.10;;;;;;;11.57;59.55;99501.84;5119187;27;43335;-86
2022/02/07 11:45:19;;;;;;;1.10;0.87;;;;;;;14.31;54.47;99538.97;5038292;28;42441;-87
2022/02/07 11:47:48;;;;;;;2.40;0.90;;;;;;;14.98;50.82;99548.56;5136787;27;39691;-85
2022/02/07 11:50:20;;;;;;;2.43;0.70;;;;;;;14.36;50.32;99542.16;5119848;27;40401;-86
2022/02/07 11:52:51;;;;;;;1.90;0.80;;;;;;;13.88;51.48;99523.16;5136389;27;43094;-84
2022/02/07 11:55:23;;;;;;;1.20;0.80;;;;;;;14.94;49.27;99548.91;5137468;27;40927;-86
2022/02/07 11:57:58;;;;;;;3.80;0.70;;;;;;;17.76;44.99;99532.03;5136835;27;38862;-89
2022/02/07 12:00:31;;;;;;;2.23;1.10;;;;;;;21.06;40.60;99602.34;5128042;27;40807;-84
2022/02/07 12:03:03;;;;;;;3.63;1.10;;;;;;;23.49;35.90;99620.47;5119367;27;43803;-85
2022/02/07 12:05:32;;;;;;;1.33;1.17;;;;;;;25.23;30.77;99658.66;5119837;27;42627;-91
2022/02/07 12:08:02;;;;;;;1.70;0.90;;;;;;;25.19;30.72;99654.59;5122588;27;38982;-87
2022/02/07 12:10:38;;;;;;;2.77;1.20;;;;;;;24.09;30.46;99668.34;5127184;27;40407;-86
2022/02/07 12:13:30;;;;;;;2.17;1.20;;;;;;;22.19;32.15;99665.16;5127735;27;44532;-89
2022/02/07 12:15:59;;;;;;;0.80;0.80;;;;;;;21.56;32.63;99647.94;5129107;27;41244;-87
2022/02/07 12:18:28;;;;;;;2.03;0.90;;;;;;;20.14;35.43;99627.91;5130854;27;39016;-87
2022/02/07 12:21:14;;;;;;;1.47;0.80;;;;;;;21.60;33.42;99649.34;5148576;27;40367;-85
2022/02/07 12:23:42;;;;;;;1.40;0.60;;;;;;;20.36;34.86;99629.56;5119534;27;42594;-84
2022/02/07 12:26:14;;;;;;;1.90;0.97;;;;;;;19.22;35.08;99629.72;5136142;27;42414;-86
2022/02/07 12:28:46;;;;;;;2.00;1.43;;;;;;;19.25;35.43;99658.16;5119648;27;40620;-87
2022/02/07 12:31:19;;;;;;;1.53;1.00;;;;;;;17.80;37.31;99651.34;5134437;27;42072;-86
2022/02/07 12:33:56;;;;;;;1.83;0.90;;;;;;;16.96;39.92;99650.81;5136853;27;41452;-87
2022/02/07 12:36:25;;;;;;;2.10;0.80;;;;;;;16.74;41.13;99641.75;5134204;27;42632;-84
2022/02/07 12:38:54;;;;;;;2.30;0.90;;;;;;;16.72;40.83;99637.47;5136610;27;40428;-87
2022/02/07 12:41:24;;;;;;;2.67;0.83;;;;;;;18.07;40.84;99616.13;5118677;27;41733;-86
2022/02/07 12:43:55;;;;;;;2.53;0.90;;;;;;;19.56;35.74;99654.56;5119352;27;43557;-85
2022/02/07 12:46:26;;;;;;;1.17;0.87;;;;;;;20.03;34.56;99657.59;5118295;27;42545;-84
2022/02/07 12:48:57;;;;;;;3.00;1.00;;;;;;;21.13;33.54;99670.81;5150531;27;40407;-90
2022/02/07 12:51:28;;;;;;;0.90;0.90;;;;;;;23.18;32.04;99700.31;5135884;27;40718;-85
2022/02/07 12:56:45;;;;;;;1.80;0.77;;;;;;;23.68;30.45;99668.13;5128682;27;41069;-88
2022/02/07 12:59:15;;;;;;;2.00;0.90;;;;;;;23.56;29.79;99689.19;5119504;27;40399;-92
2022/02/07 13:01:45;;;;;;;3.53;0.87;;;;;;;22.73;30.82;99719.28;5120356;27;40916;-90
2022/02/07 13:04:15;;;;;;;1.27;0.60;;;;;;;21.88;31.06;99713.09;5118801;27;42350;-87
2022/02/07 13:06:44;;;;;;;2.13;1.20;;;;;;;19.87;31.77;99736.06;5124442;27;41369;-82
2022/02/07 13:09:16;;;;;;;1.77;0.77;;;;;;;17.80;36.45;99685.38;5154480;27;41292;-81
2022/02/07 13:11:48;;;;;;;2.33;1.30;;;;;;;17.67;39.32;99665.88;5118155;27;40436;-84
2022/02/07 13:14:18;;;;;;;2.40;0.93;;;;;;;16.91;40.54;99685.97;5135556;27;41937;-85
2022/02/07 13:16:47;;;;;;;2.87;0.80;;;;;;;15.32;42.69;99669.84;5117719;27;40948;-84
2022/02/07 13:19:17;;;;;;;0.70;0.60;;;;;;;14.21;46.34;99665.75;5118761;27;38838;-84
2022/02/07 13:21:47;;;;;;;1.47;1.07;;;;;;;13.87;47.73;99646.59;5135762;27;41540;-82
2022/02/07 13:24:18;;;;;;;2.27;0.70;;;;;;;14.26;47.59;99640.50;5118364;27;43060;-85
2022/02/07 13:26:47;;;;;;;1.03;0.80;;;;;;;15.56;45.92;99655.78;5117989;27;41239;-85
2022/02/07 13:29:21;;;;;;;2.07;0.90;;;;;;;14.85;45.87;99664.19;5118616;27;38715;-86
2022/02/07 13:31:58;;;;;;;2.50;1.33;;;;;;;14.39;46.92;99680.53;5117735;27;41465;-83
2022/02/07 13:34:27;;;;;;;1.27;0.90;;;;;;;13.48;48.17;99681.00;5112958;27;43337;-82
2022/02/07 13:37:04;;;;;;;1.90;0.87;;;;;;;12.39;50.82;99646.69;5114080;27;42377;-83
2022/02/07 13:39:52;;;;;;;0.83;0.77;;;;;;;11.46;52.79;99665.13;5110276;27;38893;-87
2022/02/07 13:42:25;;;;;;;2.07;0.80;;;;;;;10.88;54.15;99661.13;5116749;27;40964;-86
2022/02/07 13:44:58;;;;;;;3.03;1.17;;;;;;;10.35;56.15;99643.47;5117774;27;44431;-86
2022/02/07 13:47:27;;;;;;;4.47;1.10;;;;;;;9.73;56.21;99616.41;5116381;27;42495;-86
2022/02/07 13:49:57;;;;;;;1.97;0.90;;;;;;;9.79;57.08;99689.31;5118261;27;38817;-87
2022/02/07 13:52:29;;;;;;;0.93;0.93;;;;;;;9.52;58.00;99683.50;5116270;27;40881;-87
2022/02/07 13:55:10;;;;;;;1.50;0.73;;;;;;;9.33;57.86;99685.25;5117531;27;42133;-88
2022/02/07 13:57:49;;;;;;;1.23;1.13;;;;;;;9.16;58.83;99651.63;5116624;27;41151;-89
2022/02/07 14:00:20;;;;;;;3.23;0.63;;;;;;;9.17;58.37;99689.47;5118043;27;38978;-89
2022/02/07 14:02:48;;;;;;;0.77;0.77;;;;;;;9.42;58.31;99684.84;5117139;27;40706;-88
2022/02/07 14:05:18;;;;;;;3.03;1.10;;;;;;;9.85;57.52;99698.78;5121248;27;41836;-84
2022/02/07 14:07:50;;;;;;;2.17;1.33;;;;;;;10.42;55.36;99682.81;5120391;27;41862;-88
2022/02/07 14:10:20;;;;;;;3.87;0.77;;;;;;;11.85;54.08;99725.84;5120820;27;39948;-90
2022/02/07 14:12:52;;;;;;;0.90;0.90;;;;;;;13.08;49.93;99712.66;5119997;27;41987;-87
2022/02/07 14:15:21;;;;;;;3.00;1.00;;;;;;;14.55;47.81;99753.28;5120214;27;43175;-86
2022/02/07 14:17:49;;;;;;;2.27;1.23;;;;;;;15.38;46.06;99730.81;5119501;27;41418;-84
2022/02/07 14:20:24;;;;;;;5.30;1.30;;;;;;;16.35;43.23;99791.72;5119907;27;38986;-85
2022/02/07 14:22:52;;;;;;;0.83;0.83;;;;;;;16.74;41.38;99772.84;5120346;27;42096;-92
2022/02/07 14:25:29;;;;;;;2.47;0.90;;;;;;;17.15;39.78;99777.81;5120634;27;43071;-89
2022/02/07 14:27:58;;;;;;;2.47;1.20;;;;;;;16.83;39.93;99793.56;5119645;27;42256;-83
2022/02/07 14:30:29;;;;;;;1.40;0.90;;;;;;;15.62;40.99;99789.69;5120434;27;38859;-84
2022/02/07 14:32:58;;;;;;;1.70;1.27;;;;;;;14.45;41.68;99816.13;5137827;27;42466;-87
2022/02/07 14:35:26;;;;;;;1.17;0.80;;;;;;;13.40;43.92;99826.97;5120247;27;42845;-86
2022/02/07 14:37:56;;;;;;;1.27;1.17;;;;;;;12.53;45.67;99811.50;5119461;27;41482;-83
2022/02/07 14:40:24;;;;;;;3.17;0.93;;;;;;;11.80;47.47;99791.56;5120325;27;38848;-84
2022/02/07 14:42:51;;;;;;;3.47;0.90;;;;;;;11.23;48.97;99778.63;5116333;27;40434;-85
2022/02/07 14:45:26;;;;;;;3.40;1.07;;;;;;;11.02;50.80;99807.03;5110585;27;43160;-87
2022/02/07 14:48:03;;;;;;;5.17;1.37;;;;;;;10.54;52.16;99783.78;5119768;27;41104;-88
2022/02/07 14:50:31;;;;;;;4.03;1.27;;;;;;;10.08;53.87;99765.59;5104725;27;38986;-94
2022/02/07 14:52:59;;;;;;;1.00;1.00;;;;;;;9.83;54.62;99783.50;5119388;27;42212;-86
2022/02/07 14:55:28;;;;;;;1.40;0.80;;;;;;;9.48;55.26;99757.75;5137249;27;42867;-84
2022/02/07 14:57:57;;;;;;;0.60;0.60;;;;;;;9.02;55.36;99714.81;5119303;27;42223;-86
2022/02/07 15:00:27;;;;;;;1.47;0.50;;;;;;;9.17;55.47;99784.63;5120417;27;38844;-85
2022/02/07 15:02:57;;;;;;;2.17;0.53;;;;;;;8.59;55.99;99739.47;5119591;27;40495;-90
2022/02/07 15:05:26;;;;;;;1.20;0.67;;;;;;;8.72;57.34;99772.38;5119938;27;42866;-84
2022/02/07 15:07:55;;;;;;;1.67;0.73;;;;;;;8.49;57.84;99753.97;5119472;27;42231;-86
2022/02/07 15:10:23;;;;;;;1.97;1.03;;;;;;;8.34;58.30;99750.16;5137145;27;38930;-83
2022/02/07 15:12:50;;;;;;;3.53;0.70;;;;;;;8.24;58.73;99757.53;5119386;27;40599;-86
2022/02/07 15:15:19;;;;;;;1.80;1.37;;;;;;;8.09;59.43;99744.94;5119267;27;45114;-85
2022/02/07 15:17:46;;;;;;;0.80;0.60;;;;;;;7.90;59.55;99736.00;5118681;27;41212;-87
2022/02/07 15:20:15;;;;;;;4.50;1.10;;;;;;;7.83;60.17;99742.41;5119986;27;40112;-88
2022/02/07 15:22:49;;;;;;;1.00;0.83;;;;;;;7.57;60.81;99720.50;5120114;27;40646;-89
2022/02/07 15:25:22;;;;;;;1.20;0.90;;;;;;;7.46;60.79;99714.75;5118942;27;43067;-87
2022/02/07 15:27:50;;;;;;;1.90;0.90;;;;;;;7.59;61.40;99757.34;5119229;27;41352;-87
2022/02/07 15:30:18;;;;;;;0.70;0.70;;;;;;;7.34;61.31;99728.38;5118932;27;40080;-88
2022/02/07 15:32:49;;;;;;;2.60;0.80;;;;;;;7.48;61.73;99768.28;5118529;27;40458;-86
2022/02/07 15:35:19;;;;;;;2.37;0.83;;;;;;;7.35;61.84;99777.53;5120843;27;43142;-84
2022/02/07 15:37:48;;;;;;;3.37;0.87;;;;;;;7.18;61.99;99759.66;5119072;27;41469;-85
2022/02/07 15:40:16;;;;;;;1.53;0.80;;;;;;;6.77;62.12;99707.53;5119112;27;39099;-89
2022/02/07 15:42:44;;;;;;;3.70;1.77;;;;;;;6.93;62.88;99742.09;5119218;27;40443;-86
2022/02/07 15:45:12;;;;;;;1.10;0.90;;;;;;;6.87;62.92;99764.25;5118928;27;42341;-88
2022/02/07 15:47:43;;;;;;;1.33;1.00;;;;;;;6.68;63.02;99750.81;5118752;27;42466;-84
2022/02/07 15:50:13;;;;;;;3.13;1.47;;;;;;;6.68;63.67;99753.44;5119298;27;38900;-84
2022/02/07 15:52:41;;;;;;;3.37;1.00;;;;;;;6.49;63.69;99752.31;5117730;27;41336;-85
2022/02/07 15:55:12;;;;;;;3.97;0.90;;;;;;;6.47;64.23;99772.56;5118642;27;44409;-83
2022/02/07 15:57:41;;;;;;;2.10;0.90;;;;;;;6.34;64.27;99771.19;5118487;27;41047;-83
2022/02/07 16:00:09;;;;;;;1.77;1.10;;;;;;;6.29;64.49;99767.88;5118573;27;40498;-87
2022/02/07 16:02:44;;;;;;;3.07;1.30;;;;;;;6.26;64.69;99787.22;5135588;27;40932;-85
2022/02/07 16:05:12;;;;;;;3.03;1.13;;;;;;;6.19;64.97;99805.84;5133399;27;42888;-86
2022/02/07 16:07:40;;;;;;;1.40;0.97;;;;;;;6.17;65.27;99807.69;5118111;27;44093;-85
2022/02/07 16:10:07;;;;;;;3.07;0.93;;;;;;;6.09;65.64;99790.34;5119114;27;38767;-86
2022/02/07 16:12:36;;;;;;;1.30;0.97;;;;;;;6.16;65.83;99795.44;5118831;27;41971;-85
2022/02/07 16:15:04;;;;;;;4.10;1.70;;;;;;;6.18;65.61;99806.78;5119086;27;41542;-84
2022/02/07 16:17:32;;;;;;;1.13;0.80;;;;;;;6.15;66.40;99797.22;5117750;27;41143;-89
2022/02/07 16:20:00;;;;;;;4.67;1.50;;;;;;;6.13;66.38;99802.53;5119178;27;39370;-86
2022/02/07 16:22:27;;;;;;;3.70;1.20;;;;;;;6.15;66.88;99810.38;5135379;27;41499;-87
2022/02/07 16:24:54;;;;;;;0.80;0.80;;;;;;;6.17;66.76;99810.31;5119005;27;44336;-87
2022/02/07 16:27:22;;;;;;;1.67;1.03;;;;;;;6.27;66.83;99819.66;5116921;27;42241;-84
2022/02/07 16:29:51;;;;;;;0.80;0.80;;;;;;;6.09;67.12;99806.13;5118890;27;39018;-89
2022/02/07 16:32:19;;;;;;;6.20;1.00;;;;;;;6.08;67.32;99814.94;5117908;27;40522;-86
2022/02/07 16:34:46;;;;;;;1.03;0.90;;;;;;;6.04;66.99;99818.56;5118934;27;42830;-86
2022/02/07 16:37:14;;;;;;;1.10;0.80;;;;;;;6.12;67.52;99837.59;5153485;27;42252;-86
2022/02/07 16:39:43;;;;;;;1.77;1.00;;;;;;;6.03;67.74;99822.09;5118694;27;41242;-85
2022/02/07 16:42:12;;;;;;;2.97;1.03;;;;;;;6.12;67.73;99848.13;5117740;27;42272;-86
2022/02/07 16:44:48;;;;;;;1.67;1.27;;;;;;;6.01;68.20;99834.44;5119092;27;41848;-85
2022/02/07 16:47:19;;;;;;;3.93;0.97;;;;;;;6.04;68.46;99847.50;5134191;27;42104;-83
2022/02/07 16:49:48;;;;;;;2.07;1.10;;;;;;;5.93;68.23;99833.78;5118727;27;40634;-84
2022/02/07 16:52:15;;;;;;;1.27;1.07;;;;;;;5.93;68.40;99836.44;5117379;27;41705;-86
2022/02/07 16:54:42;;;;;;;1.10;1.00;;;;;;;5.91;68.30;99846.13;5135655;27;42773;-88
2022/02/07 16:57:10;;;;;;;1.43;1.13;;;;;;;5.94;68.52;99853.91;5117470;27;40968;-87
2022/02/07 16:59:38;;;;;;;5.83;1.23;;;;;;;5.91;68.56;99853.13;5118613;27;40579;-84
2022/02/07 17:02:06;;;;;;;1.63;1.30;;;;;;;5.94;68.30;99866.16;5117351;27;40546;-84
2022/02/07 17:04:36;;;;;;;2.33;1.10;;;;;;;5.90;68.46;99857.53;5118310;27;41836;-84
2022/02/07 17:07:04;;;;;;;4.60;1.00;;;;;;;5.96;68.56;99894.16;5134741;27;41115;-84
2022/02/07 17:09:33;;;;;;;3.43;1.20;;;;;;;5.58;68.57;99855.72;5135481;27;39920;-87
2022/02/07 17:12:00;;;;;;;5.07;1.40;;;;;;;5.49;68.48;99860.34;5117942;27;40483;-87
2022/02/07 17:14:28;;;;;;;1.07;0.80;;;;;;;5.59;68.76;99902.13;5110975;27;41848;-87
2022/02/07 17:16:55;;;;;;;2.87;1.47;;;;;;;5.44;69.58;99893.78;5116441;27;43092;-88
2022/02/07 17:19:23;;;;;;;1.83;1.37;;;;;;;5.20;69.46;99868.97;5118309;27;40722;-87
2022/02/07 17:21:52;;;;;;;3.33;1.00;;;;;;;5.28;69.65;99899.41;5117408;27;41625;-84
2022/02/07 17:24:20;;;;;;;0.93;0.87;;;;;;;5.29;69.41;99885.38;5117771;27;42887;-86
2022/02/07 17:26:48;;;;;;;4.00;1.30;;;;;;;5.48;69.56;99900.66;5116849;27;40751;-85
2022/02/07 17:29:15;;;;;;;1.07;0.70;;;;;;;5.45;69.34;99916.50;5114297;27;38982;-87
2022/02/07 17:31:44;;;;;;;1.97;0.93;;;;;;;5.19;69.50;99873.38;5115899;27;40700;-85
2022/02/07 17:34:11;;;;;;;2.30;1.33;;;;;;;5.16;69.73;99894.44;5116725;27;42480;-88
2022/02/07 17:36:39;;;;;;;1.47;1.10;;;;;;;5.16;69.97;99914.59;5117130;27;41387;-83
2022/02/07 17:39:08;;;;;;;5.53;1.03;;;;;;;5.20;70.03;99922.34;5119177;27;38983;-84
2022/02/07 17:41:35;;;;;;;2.10;1.53;;;;;;;5.15;70.36;99915.50;5151373;27;41024;-85
2022/02/07 17:44:05;;;;;;;2.63;1.13;;;;;;;5.18;70.27;99912.81;5120125;27;43349;-83
2022/02/07 17:46:33;;;;;;;2.67;1.57;;;;;;;5.10;70.21;99907.72;5120909;27;41392;-85
2022/02/07 17:49:01;;;;;;;3.33;1.00;;;;;;;5.32;69.95;99927.31;5121632;27;38948;-86
2022/02/07 17:51:30;;;;;;;2.37;1.10;;;;;;;5.29;69.49;99922.16;5119935;27;40747;-86
2022/02/07 17:53:59;;;;;;;1.80;1.33;;;;;;;5.47;68.74;99957.59;5120424;27;44267;-85
2022/02/07 17:56:28;;;;;;;0.83;0.70;;;;;;;5.37;68.44;99935.94;5120213;27;41354;-85
2022/02/07 17:58:55;;;;;;;3.83;1.10;;;;;;;5.39;67.41;99949.06;5119417;27;39173;-88
2022/02/07 18:01:23;;;;;;;3.13;2.83;;;;;;;5.44;67.07;99977.84;5118912;27;43489;-88
2022/02/07 18:03:50;;;;;;;2.37;0.80;;;;;;;5.30;66.98;99960.66;5120950;27;41752;-87
2022/02/07 18:06:20;;;;;;;1.57;0.90;;;;;;;5.08;66.91;99938.38;5120170;27;42271;-88
2022/02/07 18:08:49;;;;;;;1.77;0.80;;;;;;;5.27;67.06;99986.09;5135209;27;39059;-87
2022/02/07 18:11:16;;;;;;;3.83;0.80;;;;;;;4.96;67.41;99946.53;5120357;27;41524;-88
2022/02/07 18:13:49;;;;;;;3.07;1.23;;;;;;;5.08;67.62;99985.66;5120111;27;42614;-84
2022/02/07 18:16:18;;;;;;;3.80;1.00;;;;;;;5.00;67.25;99987.59;5119547;27;41375;-84
2022/02/07 18:18:46;;;;;;;0.60;0.60;;;;;;;4.81;67.64;99965.28;5138333;27;39861;-84
2022/02/07 18:21:15;;;;;;;3.10;1.07;;;;;;;4.83;67.73;99987.06;5137011;27;42026;-85
2022/02/07 18:23:47;;;;;;;3.37;1.33;;;;;;;4.66;67.82;99969.94;5119594;27;42622;-84
2022/02/07 18:26:15;;;;;;;2.57;1.23;;;;;;;4.62;68.07;99960.41;5119643;27;42424;-85
2022/02/07 18:28:42;;;;;;;1.17;0.90;;;;;;;4.59;68.12;99975.31;5137966;27;38788;-85
2022/02/07 18:31:12;;;;;;;1.73;1.20;;;;;;;4.32;68.24;99926.94;5120013;27;42080;-86
2022/02/07 18:33:39;;;;;;;0.87;0.80;;;;;;;4.38;67.95;99939.91;5127206;27;42547;-86
2022/02/07 18:36:12;;;;;;;4.40;1.10;;;;;;;4.51;68.20;99967.63;5137740;27;41250;-84
2022/02/07 18:38:41;;;;;;;1.30;0.87;;;;;;;4.50;68.62;99965.03;5120468;27;38872;-86
2022/02/07 18:41:20;;;;;;;3.77;1.77;;;;;;;4.45;68.64;99961.66;5119883;27;40778;-86
2022/02/07 18:43:50;;;;;;;2.87;1.00;;;;;;;4.39;68.79;99962.63;5120795;27;41858;-88
2022/02/07 18:46:19;;;;;;;4.07;0.60;;;;;;;4.51;68.77;99988.63;5119518;27;42055;-86
2022/02/07 18:48:47;;;;;;;5.07;0.90;;;;;;;4.43;68.91;99968.69;5116504;27;39166;-84
2022/02/07 18:51:15;;;;;;;1.10;0.97;;;;;;;4.39;69.13;99965.25;5136149;27;40649;-85
2022/02/07 18:53:42;;;;;;;3.23;1.00;;;;;;;4.49;69.08;99984.28;5120318;27;41704;-84
2022/02/07 18:56:11;;;;;;;0.80;0.80;;;;;;;4.16;69.24;99933.38;5119657;27;41625;-85
2022/02/07 18:58:43;;;;;;;0.70;0.70;;;;;;;4.31;69.45;99967.16;5119835;27;38934;-84
2022/02/07 19:01:18;;;;;;;4.03;1.33;;;;;;;4.25;70.02;99964.66;5119968;27;40516;-83
2022/02/07 19:03:48;;;;;;;5.63;1.00;;;;;;;4.35;69.85;99992.41;5119914;27;41400;-85
2022/02/07 19:06:30;;;;;;;2.20;1.80;;;;;;;3.95;69.77;99919.78;5119743;27;41214;-84
2022/02/07 19:09:00;;;;;;;3.40;0.90;;;;;;;4.14;70.07;99964.84;5138524;27;38810;-85
2022/02/07 19:11:30;;;;;;;1.40;0.80;;;;;;;4.16;69.92;99970.06;5120483;27;40491;-86
2022/02/07 19:13:59;;;;;;;2.53;0.83;;;;;;;4.26;70.08;99989.97;5138010;27;42884;-86
2022/02/07 19:16:29;;;;;;;2.70;1.90;;;;;;;4.25;69.79;99990.88;5121202;27;40871;-85
2022/02/07 19:19:02;;;;;;;1.63;1.10;;;;;;;4.01;70.11;99954.63;5134894;27;40672;-84
2022/02/07 19:21:34;;;;;;;2.40;1.03;;;;;;;4.06;70.18;99963.28;5135453;27;42529;-83
2022/02/07 19:24:07;;;;;;;2.50;1.50;;;;;;;4.10;70.01;99965.78;5120679;27;41895;-87
2022/02/07 19:26:38;;;;;;;2.03;1.17;;;;;;;4.07;69.97;99967.63;5152049;27;41132;-86
2022/02/07 19:29:12;;;;;;;1.07;0.97;;;;;;;4.15;70.33;99989.31;5137540;27;39003;-83
2022/02/07 19:31:45;;;;;;;0.87;0.87;;;;;;;4.13;70.29;99993.72;5119440;27;42987;-83
2022/02/07 19:34:32;;;;;;;2.57;1.27;;;;;;;4.09;70.53;99997.28;5119772;27;42829;-84
2022/02/07 19:37:01;;;;;;;1.97;1.20;;;;;;;4.07;70.39;99996.47;5119522;27;41069;-85
2022/02/07 19:39:29;;;;;;;1.70;1.00;;;;;;;4.04;70.67;100001.75;5119841;27;40413;-84
2022/02/07 19:42:06;;;;;;;0.97;0.90;;;;;;;3.74;70.92;99956.84;5118660;27;41940;-85
2022/02/07 19:44:37;;;;;;;3.40;0.90;;;;;;;3.79;70.87;99965.50;5103951;27;42749;-84
2022/02/07 19:47:05;;;;;;;3.60;1.30;;;;;;;3.70;70.83;99960.44;5118700;27;42968;-83
2022/02/07 19:49:34;;;;;;;3.20;1.20;;;;;;;3.92;70.83;100001.09;5117733;27;39647;-83
2022/02/07 19:52:02;;;;;;;1.20;0.90;;;;;;;3.65;70.80;99962.25;5136383;27;41629;-84
2022/02/07 19:54:30;;;;;;;4.23;1.30;;;;;;;3.88;71.15;99999.41;5118968;27;42279;-83
2022/02/07 19:56:59;;;;;;;2.07;1.47;;;;;;;3.56;71.26;99949.31;5115707;27;42377;-84
2022/02/07 19:59:27;;;;;;;3.00;1.13;;;;;;;3.72;71.10;99979.56;5118936;27;40463;-83
2022/02/07 20:01:55;;;;;;;1.63;1.13;;;;;;;3.80;71.10;100001.28;5117579;27;40597;-86
2022/02/07 20:04:23;;;;;;;2.37;0.80;;;;;;;3.55;71.32;99971.16;5117955;27;41761;-83
2022/02/07 20:06:58;;;;;;;2.03;1.20;;;;;;;3.80;71.40;100006.53;5118033;27;42279;-84
2022/02/07 20:09:27;;;;;;;0.70;0.70;;;;;;;3.80;71.52;100008.28;5117228;27;38919;-83
2022/02/07 20:12:13;;;;;;;3.23;0.83;;;;;;;3.71;71.68;99993.56;5117872;27;40590;-84
2022/02/07 20:14:42;;;;;;;1.00;1.00;;;;;;;3.51;71.34;99977.31;5118148;27;44339;-86
2022/02/07 20:17:11;;;;;;;2.67;1.37;;;;;;;3.52;71.23;99976.44;5134636;27;43243;-85
2022/02/07 20:19:39;;;;;;;3.47;1.00;;;;;;;3.80;71.16;100024.00;5116321;27;40409;-84
2022/02/07 20:22:09;;;;;;;2.37;0.90;;;;;;;3.77;71.45;100030.16;5134912;27;42644;-83
2022/02/07 20:24:39;;;;;;;1.10;1.00;;;;;;;3.78;71.53;100036.25;5117964;27;43041;-84
2022/02/07 20:27:10;;;;;;;0.60;0.60;;;;;;;3.70;71.28;100020.69;5117270;27;41775;-84
2022/02/07 20:29:38;;;;;;;2.57;0.90;;;;;;;3.59;71.30;100004.25;5119206;27;39106;-84
2022/02/07 20:32:09;;;;;;;0.90;0.70;;;;;;;3.54;71.23;100000.84;5135690;27;42221;-84
2022/02/07 20:34:38;;;;;;;1.03;0.70;;;;;;;3.79;71.68;100051.09;5118560;27;44179;-84
2022/02/07 20:37:09;;;;;;;2.80;1.13;;;;;;;3.69;71.66;100026.81;5118326;27;41465;-84
2022/02/07 20:39:38;;;;;;;3.83;1.87;;;;;;;3.75;71.58;100042.41;5133327;27;39899;-83
2022/02/07 20:42:06;;;;;;;4.93;1.37;;;;;;;3.45;71.63;99990.53;5118792;27;40654;-84
2022/02/07 20:44:34;;;;;;;8.03;1.13;;;;;;;3.41;71.89;99983.59;5136049;27;43580;-84
2022/02/07 20:47:10;;;;;;;1.20;0.60;;;;;;;3.65;71.80;100027.72;5118143;27;41903;-84
2022/02/07 20:49:39;;;;;;;1.60;1.00;;;;;;;3.75;71.95;100037.16;5133367;27;39911;-84
2022/02/07 20:52:09;;;;;;;3.50;0.67;;;;;;;3.77;71.89;100060.72;5118427;27;41772;-84
2022/02/07 20:54:37;;;;;;;1.03;0.70;;;;;;;3.58;71.71;100028.72;5117983;27;42085;-83
2022/02/07 20:57:05;;;;;;;2.33;0.80;;;;;;;3.70;72.02;100044.25;5118372;27;40986;-84
2022/02/07 20:59:34;;;;;;;1.43;1.10;;;;;;;3.54;72.10;100033.16;5118559;27;40601;-83
2022/02/07 21:02:03;;;;;;;1.13;0.73;;;;;;;3.62;72.20;100051.34;5118084;27;42552;-83
2022/02/07 21:04:36;;;;;;;1.20;1.10;;;;;;;3.71;72.06;100072.16;5135956;27;41556;-84
2022/02/07 21:07:10;;;;;;;2.13;1.23;;;;;;;3.30;71.99;100003.84;5118274;27;40888;-83
2022/02/07 21:09:40;;;;;;;3.40;0.80;;;;;;;3.55;72.04;100044.47;5132990;27;40044;-83
2022/02/07 21:12:11;;;;;;;1.53;1.00;;;;;;;3.70;72.03;100075.69;5116327;27;40660;-86
2022/02/07 21:14:39;;;;;;;1.63;1.23;;;;;;;3.62;72.05;100067.06;5117600;27;44119;-83
2022/02/07 21:17:07;;;;;;;1.97;0.60;;;;;;;3.54;72.07;100048.00;5117661;27;41514;-84
2022/02/07 21:19:39;;;;;;;2.03;1.00;;;;;;;3.60;72.52;100063.59;5135616;27;39712;-85
2022/02/07 21:22:09;;;;;;;0.87;0.87;;;;;;;3.70;72.16;100080.94;5151443;27;41655;-85
2022/02/07 21:24:36;;;;;;;3.60;1.03;;;;;;;3.59;72.65;100072.34;5118896;27;43573;-84
2022/02/07 21:27:07;;;;;;;4.50;1.20;;;;;;;3.65;72.63;100087.13;5118657;27;42772;-83
2022/02/07 21:29:35;;;;;;;4.63;1.10;;;;;;;3.54;72.78;100082.03;5136234;27;40593;-84
2022/02/07 21:32:02;;;;;;;3.57;1.37;;;;;;;3.59;72.94;100094.16;5118444;27;40537;-83
2022/02/07 21:34:30;;;;;;;4.37;1.73;;;;;;;3.47;73.16;100083.00;5123641;27;42932;-82
2022/02/07 21:36:57;;;;;;;5.13;1.03;;;;;;;3.43;72.89;100084.81;5127739;27;41010;-83
2022/02/07 21:39:25;;;;;;;2.93;1.27;;;;;;;3.52;73.11;100099.53;5129313;27;40238;-84
2022/02/07 21:41:52;;;;;;;1.27;0.97;;;;;;;3.53;73.14;100120.47;5128624;27;40176;-84